Hestrud (Nord, France) - 208 m
Donnes mto: Actuelle samedi, 29/04/2017 14:59
Date Horaire Temp Out Temp. E. min Temp. E. max Temp. Sol 1 Hum Out Hum. Sol 1 Press Rain Wind Dir Dir Solar Ev.Tr. UV Hi Solar Rad Dew Point Windchill Wind (Gust)
29/04/2017 14:59 15,3 C 15,3 C 15,4 C 17,2 C 42 % 200 cb 1016,5 hPa 0,0 mm 14,5 km/h (3 Bft) NE 45 60 min 0,305 mm 3,8 UV-I 918 W/m 2,5 C 11,7 C 19,3 km/h (3 Bft)
29/04/2017 13:59 13,3 C 13,3 C 13,3 C 14,4 C 47 % 200 cb 1017,0 hPa 0,0 mm 1,6 km/h (1 Bft) E-NE 67 60 min 0,127 mm 2,9 UV-I 473 W/m 2,2 C 13,3 C 3,2 km/h (1 Bft)
29/04/2017 12:59 12,1 C 12,1 C 12,1 C 12,8 C 52 % 200 cb 1017,5 hPa 0,0 mm 0,0 km/h (0 Bft) N 0 60 min 0,178 mm 2,0 UV-I 295 W/m 2,5 C 12,1 C 0,0 km/h (0 Bft)
29/04/2017 11:59 12,1 C 12,1 C 12,1 C 12,8 C 54 % 200 cb 1017,8 hPa 0,0 mm 0,0 km/h (0 Bft) N 0 60 min 0,279 mm 1,6 UV-I 237 W/m 3,1 C 12,1 C 0,0 km/h (0 Bft)
29/04/2017 10:59 12,8 C 12,7 C 12,8 C 15,0 C 55 % 200 cb 1018,0 hPa 0,0 mm 8,0 km/h (2 Bft) SO 225 60 min 0,178 mm 2,5 UV-I 513 W/m 4,0 C 11,8 C 11,3 km/h (2 Bft)
29/04/2017 09:59 11,1 C 11,1 C 11,1 C 12,8 C 56 % 200 cb 1018,0 hPa 0,0 mm 0,0 km/h (0 Bft) N 0 60 min 0,076 mm 1,6 UV-I 490 W/m 2,7 C 11,1 C 0,0 km/h (0 Bft)
29/04/2017 08:59 6,0 C 5,9 C 6,0 C 5,0 C 83 % 200 cb 1018,1 hPa 0,0 mm 0,0 km/h (0 Bft) N 0 39 min 0,025 mm 0,8 UV-I 316 W/m 3,3 C 6,0 C 0,0 km/h (0 Bft)
29/04/2017 07:59 2,7 C 2,7 C 2,7 C 2,8 C 95 % 200 cb 1017,9 hPa 0,0 mm 0,0 km/h (0 Bft) N 0 0 min 0,000 mm 0,0 UV-I 56 W/m 2,0 C 2,7 C 0,0 km/h (0 Bft)
29/04/2017 06:59 2,5 C 2,5 C 2,5 C 2,8 C 95 % 200 cb 1017,6 hPa 0,0 mm 0,0 km/h (0 Bft) N 0 0 min 0,000 mm 0,0 UV-I 23 W/m 1,8 C 2,5 C 0,0 km/h (0 Bft)
29/04/2017 05:59 1,9 C 1,9 C 1,9 C 1,7 C 94 % 200 cb 1017,6 hPa 0,0 mm 0,0 km/h (0 Bft) N 0 0 min 0,000 mm 0,0 UV-I 0 W/m 1,0 C 1,9 C 0,0 km/h (0 Bft)
29/04/2017 04:59 2,6 C 2,6 C 2,6 C 2,2 C 95 % 200 cb 1017,7 hPa 0,0 mm 0,0 km/h (0 Bft) N 0 0 min 0,000 mm 0,0 UV-I 0 W/m 1,9 C 2,6 C 0,0 km/h (0 Bft)
29/04/2017 03:59 2,2 C 2,2 C 2,3 C 2,8 C 95 % 200 cb 1018,0 hPa 0,0 mm 0,0 km/h (0 Bft) N 0 0 min 0,000 mm 0,0 UV-I 0 W/m 1,5 C 2,2 C 0,0 km/h (0 Bft)
29/04/2017 02:59 1,7 C 1,7 C 1,8 C 2,2 C 95 % 200 cb 1018,0 hPa 0,0 mm 0,0 km/h (0 Bft) N 0 0 min 0,000 mm 0,0 UV-I 0 W/m 1,0 C 1,7 C 0,0 km/h (0 Bft)
29/04/2017 01:59 1,4 C 1,4 C 1,5 C 1,7 C 94 % 200 cb 1018,0 hPa 0,0 mm 0,0 km/h (0 Bft) N 0 0 min 0,000 mm 0,0 UV-I 0 W/m 0,5 C 1,4 C 0,0 km/h (0 Bft)
29/04/2017 00:59 1,2 C 1,2 C 1,2 C 1,7 C 93 % 200 cb 1018,0 hPa 0,0 mm 0,0 km/h (0 Bft) N 0 0 min 0,000 mm 0,0 UV-I 0 W/m 0,2 C 1,2 C 0,0 km/h (0 Bft)
28/04/2017 23:59 1,6 C 1,6 C 1,6 C 0,6 C 90 % 200 cb 1017,9 hPa 0,0 mm 0,0 km/h (0 Bft) N 0 0 min 0,000 mm 0,0 UV-I 0 W/m 0,1 C 1,6 C 0,0 km/h (0 Bft)
28/04/2017 22:59 2,8 C 2,8 C 2,8 C 2,2 C 87 % 200 cb 1017,6 hPa 0,0 mm 0,0 km/h (0 Bft) N 0 0 min 0,000 mm 0,0 UV-I 0 W/m 0,9 C 2,8 C 0,0 km/h (0 Bft)
28/04/2017 21:59 4,7 C 4,7 C 4,8 C 3,9 C 81 % 200 cb 1017,2 hPa 0,0 mm 0,0 km/h (0 Bft) N 0 0 min 0,025 mm 0,0 UV-I 0 W/m 1,7 C 4,7 C 0,0 km/h (0 Bft)
28/04/2017 20:59 8,3 C 8,3 C 8,3 C 6,7 C 70 % 200 cb 1016,6 hPa 0,0 mm 0,0 km/h (0 Bft) N 0 0 min 0,051 mm 0,0 UV-I 0 W/m 3,2 C 8,3 C 0,0 km/h (0 Bft)
28/04/2017 19:59 9,5 C 9,5 C 9,5 C 8,9 C 66 % 200 cb 1016,4 hPa 0,0 mm 1,6 km/h (1 Bft) NO 315 5 min 0,102 mm 0,0 UV-I 37 W/m 3,5 C 9,5 C 1,6 km/h (1 Bft)
28/04/2017 18:59 10,6 C 10,6 C 10,6 C 10,6 C 65 % 200 cb 1016,0 hPa 0,0 mm 4,8 km/h (1 Bft) N 360 17 min 0,127 mm 0,0 UV-I 149 W/m 4,3 C 10,6 C 16,1 km/h (3 Bft)
28/04/2017 17:59 10,7 C 10,6 C 10,7 C 11,1 C 65 % 200 cb 1015,6 hPa 0,0 mm 11,3 km/h (2 Bft) N-NE 22 33 min 0,178 mm 0,7 UV-I 369 W/m 4,4 C 7,7 C 14,5 km/h (3 Bft)
28/04/2017 16:59 10,5 C 10,5 C 10,6 C 10,6 C 62 % 200 cb 1015,4 hPa 0,0 mm 8,0 km/h (2 Bft) N-NO 337 45 min 0,279 mm 0,0 UV-I 86 W/m 3,5 C 9,4 C 12,9 km/h (3 Bft)
28/04/2017 15:59 12,9 C 12,9 C 12,9 C 13,3 C 53 % 200 cb 1015,0 hPa 0,0 mm 8,0 km/h (2 Bft) O 270 59 min 0,381 mm 2,5 UV-I 548 W/m 3,6 C 11,9 C 14,5 km/h (3 Bft)
28/04/2017 15:00 12,8 C 12,8 C 12,9 C 13,3 C 56 % 200 cb 1015,0 hPa 0,0 mm 14,5 km/h (3 Bft) N 360 0 min 0,381 mm 1,7 UV-I 225 W/m 4,2 C 8,7 C 19,3 km/h (3 Bft)
_ Min-Heure 00:31 00:31 00:32 00:15 14:59 15:00 15:30 - 15:26 - - - - - - 00:31 00:31 15:26
Minimum _ 1,0 C 1,0 C 1,0 C 0,0 C 42 % 200 cb 1014,9 hPa - 0,0 km/h (0 Bft) - - - - - - -0,3 C 1,0 C 0,0 km/h (0 Bft)
_ Max-Heure 14:54 14:55 14:54 14:36 08:11 15:00 08:27 15:00 14:30 - - 15:00 15:00 13:33 13:38 15:26 14:58 15:04
Maximum _ 15,4 C 15,4 C 15,4 C 17,2 C 96 % 200 cb 1018,2 hPa 0,0 mm 16,1 km/h
N-NE (3 Bft)
- - 1 min 0,381 mm 4,4 UV-I 1125 W/m 5,4 C 15,4 C 24,1 km/h
NO (4 Bft)
Moyenne _ 7,5 C 7,5 C 7,5 C 7,8 C 74 % 200 cb 1017,1 hPa #0,0 mm 2,8 km/h (1 Bft) N - #6:39 h #1,168 mm 2,1 UV-I 211 W/m 2,6 C 6,9 C 4,4 km/h (1 Bft)